sensor_id;sensor_type;location;lat;lon;timestamp;P1;P2;P0
39955;PMS5003;25631;51.516;-0.470;2024-01-30T00:01:37;11;11;
39955;PMS5003;25631;51.516;-0.470;2024-01-30T00:04:14;11;11;
39955;PMS5003;25631;51.516;-0.470;2024-01-30T00:06:51;13;9;
39955;PMS5003;25631;51.516;-0.470;2024-01-30T00:09:27;11;9;
39955;PMS5003;25631;51.516;-0.470;2024-01-30T00:12:04;12;10;
39955;PMS5003;25631;51.516;-0.470;2024-01-30T00:14:41;8;8;
39955;PMS5003;25631;51.516;-0.470;2024-01-30T00:17:18;10;10;
39955;PMS5003;25631;51.516;-0.470;2024-01-30T00:19:54;12;11;
39955;PMS5003;25631;51.516;-0.470;2024-01-30T00:22:31;12;12;
39955;PMS5003;25631;51.516;-0.470;2024-01-30T00:25:08;11;10;
39955;PMS5003;25631;51.516;-0.470;2024-01-30T00:27:44;11;10;
39955;PMS5003;25631;51.516;-0.470;2024-01-30T00:30:21;10;10;
39955;PMS5003;25631;51.516;-0.470;2024-01-30T00:32:57;10;10;
39955;PMS5003;25631;51.516;-0.470;2024-01-30T00:35:33;11;11;
39955;PMS5003;25631;51.516;-0.470;2024-01-30T00:38:10;10;10;
39955;PMS5003;25631;51.516;-0.470;2024-01-30T00:40:46;10;9;
39955;PMS5003;25631;51.516;-0.470;2024-01-30T00:43:23;10;9;
39955;PMS5003;25631;51.516;-0.470;2024-01-30T00:45:59;7;7;
39955;PMS5003;25631;51.516;-0.470;2024-01-30T00:48:36;7;7;
39955;PMS5003;25631;51.516;-0.470;2024-01-30T00:51:12;7;7;
39955;PMS5003;25631;51.516;-0.470;2024-01-30T00:53:49;9;8;
39955;PMS5003;25631;51.516;-0.470;2024-01-30T00:56:25;8;8;
39955;PMS5003;25631;51.516;-0.470;2024-01-30T00:59:02;7;7;
39955;PMS5003;25631;51.516;-0.470;2024-01-30T01:01:38;7;7;
39955;PMS5003;25631;51.516;-0.470;2024-01-30T01:04:15;6;6;
39955;PMS5003;25631;51.516;-0.470;2024-01-30T01:06:51;7;7;
39955;PMS5003;25631;51.516;-0.470;2024-01-30T01:09:28;8;7;
39955;PMS5003;25631;51.516;-0.470;2024-01-30T01:12:05;6;6;
39955;PMS5003;25631;51.516;-0.470;2024-01-30T01:14:42;7;7;
39955;PMS5003;25631;51.516;-0.470;2024-01-30T01:17:19;8;7;
39955;PMS5003;25631;51.516;-0.470;2024-01-30T01:19:56;7;7;
39955;PMS5003;25631;51.516;-0.470;2024-01-30T01:22:33;7;6;
39955;PMS5003;25631;51.516;-0.470;2024-01-30T01:25:10;6;5;
39955;PMS5003;25631;51.516;-0.470;2024-01-30T01:27:46;9;7;
39955;PMS5003;25631;51.516;-0.470;2024-01-30T01:30:23;10;8;
39955;PMS5003;25631;51.516;-0.470;2024-01-30T01:32:59;12;10;
39955;PMS5003;25631;51.516;-0.470;2024-01-30T01:35:36;8;7;
39955;PMS5003;25631;51.516;-0.470;2024-01-30T01:38:12;8;7;
39955;PMS5003;25631;51.516;-0.470;2024-01-30T01:40:49;10;9;
39955;PMS5003;25631;51.516;-0.470;2024-01-30T01:43:25;10;9;
39955;PMS5003;25631;51.516;-0.470;2024-01-30T01:46:02;8;7;
39955;PMS5003;25631;51.516;-0.470;2024-01-30T01:48:38;6;6;
39955;PMS5003;25631;51.516;-0.470;2024-01-30T01:51:16;7;6;
39955;PMS5003;25631;51.516;-0.470;2024-01-30T01:53:52;6;6;
39955;PMS5003;25631;51.516;-0.470;2024-01-30T01:56:29;5;5;
39955;PMS5003;25631;51.516;-0.470;2024-01-30T01:59:08;5;5;
39955;PMS5003;25631;51.516;-0.470;2024-01-30T02:01:45;6;6;
39955;PMS5003;25631;51.516;-0.470;2024-01-30T02:04:22;6;6;
39955;PMS5003;25631;51.516;-0.470;2024-01-30T02:06:58;7;7;
39955;PMS5003;25631;51.516;-0.470;2024-01-30T02:09:35;6;6;
39955;PMS5003;25631;51.516;-0.470;2024-01-30T02:12:11;7;7;
39955;PMS5003;25631;51.516;-0.470;2024-01-30T02:14:48;5;5;
39955;PMS5003;25631;51.516;-0.470;2024-01-30T02:17:25;7;6;
39955;PMS5003;25631;51.516;-0.470;2024-01-30T02:20:02;7;6;
39955;PMS5003;25631;51.516;-0.470;2024-01-30T02:22:39;9;7;
39955;PMS5003;25631;51.516;-0.470;2024-01-30T02:25:17;8;7;
39955;PMS5003;25631;51.516;-0.470;2024-01-30T02:27:53;6;6;
39955;PMS5003;25631;51.516;-0.470;2024-01-30T02:30:30;6;6;
39955;PMS5003;25631;51.516;-0.470;2024-01-30T02:33:06;7;6;
39955;PMS5003;25631;51.516;-0.470;2024-01-30T02:35:42;7;7;
39955;PMS5003;25631;51.516;-0.470;2024-01-30T02:38:19;8;8;
39955;PMS5003;25631;51.516;-0.470;2024-01-30T02:40:55;6;6;
39955;PMS5003;25631;51.516;-0.470;2024-01-30T02:43:31;6;6;
39955;PMS5003;25631;51.516;-0.470;2024-01-30T02:46:08;7;7;
39955;PMS5003;25631;51.516;-0.470;2024-01-30T02:48:44;5;5;
39955;PMS5003;25631;51.516;-0.470;2024-01-30T02:51:21;6;6;
39955;PMS5003;25631;51.516;-0.470;2024-01-30T02:53:57;6;6;
39955;PMS5003;25631;51.516;-0.470;2024-01-30T02:56:34;7;7;
39955;PMS5003;25631;51.516;-0.470;2024-01-30T02:59:10;7;7;
39955;PMS5003;25631;51.516;-0.470;2024-01-30T03:01:46;9;9;
39955;PMS5003;25631;51.516;-0.470;2024-01-30T03:04:23;9;9;
39955;PMS5003;25631;51.516;-0.470;2024-01-30T03:06:59;8;8;
39955;PMS5003;25631;51.516;-0.470;2024-01-30T03:09:36;11;8;
39955;PMS5003;25631;51.516;-0.470;2024-01-30T03:12:13;13;9;
39955;PMS5003;25631;51.516;-0.470;2024-01-30T03:14:49;12;10;
39955;PMS5003;25631;51.516;-0.470;2024-01-30T03:17:25;9;9;
39955;PMS5003;25631;51.516;-0.470;2024-01-30T03:20:02;8;8;
39955;PMS5003;25631;51.516;-0.470;2024-01-30T03:22:39;10;9;
39955;PMS5003;25631;51.516;-0.470;2024-01-30T03:25:15;8;8;
39955;PMS5003;25631;51.516;-0.470;2024-01-30T03:27:51;10;10;
39955;PMS5003;25631;51.516;-0.470;2024-01-30T03:30:28;11;10;
39955;PMS5003;25631;51.516;-0.470;2024-01-30T03:33:04;11;11;
39955;PMS5003;25631;51.516;-0.470;2024-01-30T03:35:40;19;15;
39955;PMS5003;25631;51.516;-0.470;2024-01-30T03:38:17;18;17;
39955;PMS5003;25631;51.516;-0.470;2024-01-30T03:40:53;17;16;
39955;PMS5003;25631;51.516;-0.470;2024-01-30T03:43:30;9;8;
39955;PMS5003;25631;51.516;-0.470;2024-01-30T03:46:06;9;8;
39955;PMS5003;25631;51.516;-0.470;2024-01-30T03:48:43;10;9;
39955;PMS5003;25631;51.516;-0.470;2024-01-30T03:51:21;13;12;
39955;PMS5003;25631;51.516;-0.470;2024-01-30T03:53:58;16;14;
39955;PMS5003;25631;51.516;-0.470;2024-01-30T03:56:34;12;10;
39955;PMS5003;25631;51.516;-0.470;2024-01-30T03:59:11;12;9;
39955;PMS5003;25631;51.516;-0.470;2024-01-30T04:01:47;12;10;
39955;PMS5003;25631;51.516;-0.470;2024-01-30T04:04:24;9;9;
39955;PMS5003;25631;51.516;-0.470;2024-01-30T04:07:00;9;9;
39955;PMS5003;25631;51.516;-0.470;2024-01-30T04:09:38;10;10;
39955;PMS5003;25631;51.516;-0.470;2024-01-30T04:12:14;10;10;
39955;PMS5003;25631;51.516;-0.470;2024-01-30T04:14:50;10;10;
39955;PMS5003;25631;51.516;-0.470;2024-01-30T04:17:27;11;11;
39955;PMS5003;25631;51.516;-0.470;2024-01-30T04:20:04;11;11;
39955;PMS5003;25631;51.516;-0.470;2024-01-30T04:22:41;11;11;
39955;PMS5003;25631;51.516;-0.470;2024-01-30T04:25:18;14;11;
39955;PMS5003;25631;51.516;-0.470;2024-01-30T04:27:55;15;11;
39955;PMS5003;25631;51.516;-0.470;2024-01-30T04:30:31;14;13;
39955;PMS5003;25631;51.516;-0.470;2024-01-30T04:33:07;14;11;
39955;PMS5003;25631;51.516;-0.470;2024-01-30T04:35:44;14;13;
39955;PMS5003;25631;51.516;-0.470;2024-01-30T04:38:20;13;11;
39955;PMS5003;25631;51.516;-0.470;2024-01-30T04:40:57;13;11;
39955;PMS5003;25631;51.516;-0.470;2024-01-30T04:43:33;16;14;
39955;PMS5003;25631;51.516;-0.470;2024-01-30T04:46:10;16;14;
39955;PMS5003;25631;51.516;-0.470;2024-01-30T04:48:46;14;13;
39955;PMS5003;25631;51.516;-0.470;2024-01-30T04:51:23;14;13;
39955;PMS5003;25631;51.516;-0.470;2024-01-30T04:53:59;15;14;
39955;PMS5003;25631;51.516;-0.470;2024-01-30T04:56:35;14;14;
39955;PMS5003;25631;51.516;-0.470;2024-01-30T04:59:12;20;17;
39955;PMS5003;25631;51.516;-0.470;2024-01-30T05:01:48;19;17;
39955;PMS5003;25631;51.516;-0.470;2024-01-30T05:04:25;18;18;
39955;PMS5003;25631;51.516;-0.470;2024-01-30T05:07:01;18;17;
39955;PMS5003;25631;51.516;-0.470;2024-01-30T05:09:38;17;16;
39955;PMS5003;25631;51.516;-0.470;2024-01-30T05:12:14;19;16;
39955;PMS5003;25631;51.516;-0.470;2024-01-30T05:14:50;15;14;
39955;PMS5003;25631;51.516;-0.470;2024-01-30T05:17:27;16;15;
39955;PMS5003;25631;51.516;-0.470;2024-01-30T05:20:03;15;15;
39955;PMS5003;25631;51.516;-0.470;2024-01-30T05:22:41;16;14;
39955;PMS5003;25631;51.516;-0.470;2024-01-30T05:25:17;21;19;
39955;PMS5003;25631;51.516;-0.470;2024-01-30T05:27:54;21;19;
39955;PMS5003;25631;51.516;-0.470;2024-01-30T05:30:30;21;21;
39955;PMS5003;25631;51.516;-0.470;2024-01-30T05:33:06;20;20;
39955;PMS5003;25631;51.516;-0.470;2024-01-30T05:35:43;20;20;
39955;PMS5003;25631;51.516;-0.470;2024-01-30T05:38:19;22;21;
39955;PMS5003;25631;51.516;-0.470;2024-01-30T05:40:56;22;22;
39955;PMS5003;25631;51.516;-0.470;2024-01-30T05:43:32;26;23;
39955;PMS5003;25631;51.516;-0.470;2024-01-30T05:46:08;25;21;
39955;PMS5003;25631;51.516;-0.470;2024-01-30T05:48:45;24;21;
39955;PMS5003;25631;51.516;-0.470;2024-01-30T05:51:22;29;26;
39955;PMS5003;25631;51.516;-0.470;2024-01-30T05:53:58;29;27;
39955;PMS5003;25631;51.516;-0.470;2024-01-30T05:56:34;26;25;
39955;PMS5003;25631;51.516;-0.470;2024-01-30T05:59:11;28;26;
39955;PMS5003;25631;51.516;-0.470;2024-01-30T06:01:48;26;24;
39955;PMS5003;25631;51.516;-0.470;2024-01-30T06:04:25;25;23;
39955;PMS5003;25631;51.516;-0.470;2024-01-30T06:07:01;25;23;
39955;PMS5003;25631;51.516;-0.470;2024-01-30T06:09:37;31;30;
39955;PMS5003;25631;51.516;-0.470;2024-01-30T06:12:14;29;28;
39955;PMS5003;25631;51.516;-0.470;2024-01-30T06:14:51;28;27;
39955;PMS5003;25631;51.516;-0.470;2024-01-30T06:17:27;23;23;
39955;PMS5003;25631;51.516;-0.470;2024-01-30T06:20:04;21;21;
39955;PMS5003;25631;51.516;-0.470;2024-01-30T06:22:42;25;24;
39955;PMS5003;25631;51.516;-0.470;2024-01-30T06:25:18;28;26;
39955;PMS5003;25631;51.516;-0.470;2024-01-30T06:27:55;29;29;
39955;PMS5003;25631;51.516;-0.470;2024-01-30T06:30:31;25;24;
39955;PMS5003;25631;51.516;-0.470;2024-01-30T06:33:08;27;25;
39955;PMS5003;25631;51.516;-0.470;2024-01-30T06:35:44;27;25;
39955;PMS5003;25631;51.516;-0.470;2024-01-30T06:38:21;23;20;
39955;PMS5003;25631;51.516;-0.470;2024-01-30T06:40:57;20;19;
39955;PMS5003;25631;51.516;-0.470;2024-01-30T06:43:34;24;21;
39955;PMS5003;25631;51.516;-0.470;2024-01-30T06:46:10;25;22;
39955;PMS5003;25631;51.516;-0.470;2024-01-30T06:48:47;24;22;
39955;PMS5003;25631;51.516;-0.470;2024-01-30T06:51:23;19;17;
39955;PMS5003;25631;51.516;-0.470;2024-01-30T06:54:00;19;18;
39955;PMS5003;25631;51.516;-0.470;2024-01-30T06:56:36;21;18;
39955;PMS5003;25631;51.516;-0.470;2024-01-30T06:59:13;24;24;
39955;PMS5003;25631;51.516;-0.470;2024-01-30T07:01:49;23;23;
39955;PMS5003;25631;51.516;-0.470;2024-01-30T07:04:26;27;23;
39955;PMS5003;25631;51.516;-0.470;2024-01-30T07:07:02;23;21;
39955;PMS5003;25631;51.516;-0.470;2024-01-30T07:09:39;26;25;
39955;PMS5003;25631;51.516;-0.470;2024-01-30T07:12:16;22;19;
39955;PMS5003;25631;51.516;-0.470;2024-01-30T07:14:53;21;19;
39955;PMS5003;25631;51.516;-0.470;2024-01-30T07:17:29;21;19;
39955;PMS5003;25631;51.516;-0.470;2024-01-30T07:20:06;21;18;
39955;PMS5003;25631;51.516;-0.470;2024-01-30T07:22:43;19;18;
39955;PMS5003;25631;51.516;-0.470;2024-01-30T07:25:20;18;17;
39955;PMS5003;25631;51.516;-0.470;2024-01-30T07:27:56;19;18;
39955;PMS5003;25631;51.516;-0.470;2024-01-30T07:30:33;19;18;
39955;PMS5003;25631;51.516;-0.470;2024-01-30T07:33:09;18;17;
39955;PMS5003;25631;51.516;-0.470;2024-01-30T07:35:46;17;17;
39955;PMS5003;25631;51.516;-0.470;2024-01-30T07:38:22;26;25;
39955;PMS5003;25631;51.516;-0.470;2024-01-30T07:40:59;28;25;
39955;PMS5003;25631;51.516;-0.470;2024-01-30T07:43:35;29;26;
39955;PMS5003;25631;51.516;-0.470;2024-01-30T07:46:11;27;23;
39955;PMS5003;25631;51.516;-0.470;2024-01-30T07:48:48;27;23;
39955;PMS5003;25631;51.516;-0.470;2024-01-30T07:51:24;21;21;
39955;PMS5003;25631;51.516;-0.470;2024-01-30T07:54:01;18;18;
39955;PMS5003;25631;51.516;-0.470;2024-01-30T07:56:37;16;16;
39955;PMS5003;25631;51.516;-0.470;2024-01-30T07:59:14;17;17;
39955;PMS5003;25631;51.516;-0.470;2024-01-30T08:01:50;21;19;
39955;PMS5003;25631;51.516;-0.470;2024-01-30T08:04:26;22;21;
39955;PMS5003;25631;51.516;-0.470;2024-01-30T08:07:03;21;21;
39955;PMS5003;25631;51.516;-0.470;2024-01-30T08:09:40;22;21;
39955;PMS5003;25631;51.516;-0.470;2024-01-30T08:12:16;17;16;
39955;PMS5003;25631;51.516;-0.470;2024-01-30T08:14:53;18;17;
39955;PMS5003;25631;51.516;-0.470;2024-01-30T08:17:29;18;16;
39955;PMS5003;25631;51.516;-0.470;2024-01-30T08:20:06;19;17;
39955;PMS5003;25631;51.516;-0.470;2024-01-30T08:22:43;18;17;
39955;PMS5003;25631;51.516;-0.470;2024-01-30T08:25:20;24;22;
39955;PMS5003;25631;51.516;-0.470;2024-01-30T08:27:56;22;21;
39955;PMS5003;25631;51.516;-0.470;2024-01-30T08:30:33;21;19;
39955;PMS5003;25631;51.516;-0.470;2024-01-30T08:33:09;16;16;
39955;PMS5003;25631;51.516;-0.470;2024-01-30T08:35:46;18;18;
39955;PMS5003;25631;51.516;-0.470;2024-01-30T08:38:22;21;20;
39955;PMS5003;25631;51.516;-0.470;2024-01-30T08:40:58;20;17;
39955;PMS5003;25631;51.516;-0.470;2024-01-30T08:43:35;24;22;
39955;PMS5003;25631;51.516;-0.470;2024-01-30T08:46:11;24;21;
39955;PMS5003;25631;51.516;-0.470;2024-01-30T08:48:48;25;24;
39955;PMS5003;25631;51.516;-0.470;2024-01-30T08:51:24;23;23;
39955;PMS5003;25631;51.516;-0.470;2024-01-30T08:54:00;20;17;
39955;PMS5003;25631;51.516;-0.470;2024-01-30T08:56:37;20;17;
39955;PMS5003;25631;51.516;-0.470;2024-01-30T08:59:14;33;30;
39955;PMS5003;25631;51.516;-0.470;2024-01-30T09:01:50;31;30;
39955;PMS5003;25631;51.516;-0.470;2024-01-30T09:04:26;30;28;
39955;PMS5003;25631;51.516;-0.470;2024-01-30T09:07:03;24;24;
39955;PMS5003;25631;51.516;-0.470;2024-01-30T09:09:39;26;25;
39955;PMS5003;25631;51.516;-0.470;2024-01-30T09:12:16;26;25;
39955;PMS5003;25631;51.516;-0.470;2024-01-30T09:14:53;25;25;
39955;PMS5003;25631;51.516;-0.470;2024-01-30T09:17:29;28;25;
39955;PMS5003;25631;51.516;-0.470;2024-01-30T09:20:07;26;25;
39955;PMS5003;25631;51.516;-0.470;2024-01-30T09:22:44;24;22;
39955;PMS5003;25631;51.516;-0.470;2024-01-30T09:25:20;25;23;
39955;PMS5003;25631;51.516;-0.470;2024-01-30T09:27:57;30;27;
39955;PMS5003;25631;51.516;-0.470;2024-01-30T09:30:33;25;25;
39955;PMS5003;25631;51.516;-0.470;2024-01-30T09:33:10;30;28;
39955;PMS5003;25631;51.516;-0.470;2024-01-30T09:35:46;30;27;
39955;PMS5003;25631;51.516;-0.470;2024-01-30T09:38:23;30;27;
39955;PMS5003;25631;51.516;-0.470;2024-01-30T09:41:00;52;46;
39955;PMS5003;25631;51.516;-0.470;2024-01-30T09:43:41;52;49;
39955;PMS5003;25631;51.516;-0.470;2024-01-30T09:46:21;48;44;
39955;PMS5003;25631;51.516;-0.470;2024-01-30T09:49:02;49;43;
39955;PMS5003;25631;51.516;-0.470;2024-01-30T09:51:39;45;38;
39955;PMS5003;25631;51.516;-0.470;2024-01-30T09:54:18;33;31;
39955;PMS5003;25631;51.516;-0.470;2024-01-30T09:56:56;36;34;
39955;PMS5003;25631;51.516;-0.470;2024-01-30T09:59:32;27;24;
39955;PMS5003;25631;51.516;-0.470;2024-01-30T10:02:09;33;27;
39955;PMS5003;25631;51.516;-0.470;2024-01-30T10:04:47;33;27;
39955;PMS5003;25631;51.516;-0.470;2024-01-30T10:07:24;28;28;
39955;PMS5003;25631;51.516;-0.470;2024-01-30T10:10:00;27;26;
39955;PMS5003;25631;51.516;-0.470;2024-01-30T10:12:37;28;27;
39955;PMS5003;25631;51.516;-0.470;2024-01-30T10:15:15;28;27;
39955;PMS5003;25631;51.516;-0.470;2024-01-30T10:17:53;28;27;
39955;PMS5003;25631;51.516;-0.470;2024-01-30T10:20:30;27;26;
39955;PMS5003;25631;51.516;-0.470;2024-01-30T10:23:06;28;27;
39955;PMS5003;25631;51.516;-0.470;2024-01-30T10:25:43;26;26;
39955;PMS5003;25631;51.516;-0.470;2024-01-30T10:28:19;33;32;
39955;PMS5003;25631;51.516;-0.470;2024-01-30T10:30:57;35;34;
39955;PMS5003;25631;51.516;-0.470;2024-01-30T10:33:34;30;28;
39955;PMS5003;25631;51.516;-0.470;2024-01-30T10:36:11;28;26;
39955;PMS5003;25631;51.516;-0.470;2024-01-30T10:38:50;32;31;
39955;PMS5003;25631;51.516;-0.470;2024-01-30T10:41:30;28;27;
39955;PMS5003;25631;51.516;-0.470;2024-01-30T10:44:10;36;31;
39955;PMS5003;25631;51.516;-0.470;2024-01-30T10:46:51;34;32;
39955;PMS5003;25631;51.516;-0.470;2024-01-30T10:49:33;34;32;
39955;PMS5003;25631;51.516;-0.470;2024-01-30T10:52:11;34;32;
39955;PMS5003;25631;51.516;-0.470;2024-01-30T10:54:49;36;32;
39955;PMS5003;25631;51.516;-0.470;2024-01-30T10:57:27;34;32;
39955;PMS5003;25631;51.516;-0.470;2024-01-30T11:00:04;40;34;
39955;PMS5003;25631;51.516;-0.470;2024-01-30T11:02:44;41;35;
39955;PMS5003;25631;51.516;-0.470;2024-01-30T11:05:23;37;34;
39955;PMS5003;25631;51.516;-0.470;2024-01-30T11:08:10;35;30;
39955;PMS5003;25631;51.516;-0.470;2024-01-30T11:10:47;34;30;
39955;PMS5003;25631;51.516;-0.470;2024-01-30T11:13:26;32;27;
39955;PMS5003;25631;51.516;-0.470;2024-01-30T11:16:03;33;32;
39955;PMS5003;25631;51.516;-0.470;2024-01-30T11:18:41;32;31;
39955;PMS5003;25631;51.516;-0.470;2024-01-30T11:21:17;41;36;
39955;PMS5003;25631;51.516;-0.470;2024-01-30T11:23:53;41;35;
39955;PMS5003;25631;51.516;-0.470;2024-01-30T11:26:31;38;36;
39955;PMS5003;25631;51.516;-0.470;2024-01-30T11:29:08;43;39;
39955;PMS5003;25631;51.516;-0.470;2024-01-30T11:31:52;43;39;
39955;PMS5003;25631;51.516;-0.470;2024-01-30T11:34:29;47;45;
39955;PMS5003;25631;51.516;-0.470;2024-01-30T11:37:06;49;44;
39955;PMS5003;25631;51.516;-0.470;2024-01-30T11:39:48;56;47;
39955;PMS5003;25631;51.516;-0.470;2024-01-30T11:42:24;55;50;
39955;PMS5003;25631;51.516;-0.470;2024-01-30T11:45:03;53;51;
39955;PMS5003;25631;51.516;-0.470;2024-01-30T11:47:40;43;41;
39955;PMS5003;25631;51.516;-0.470;2024-01-30T11:50:17;43;39;
39955;PMS5003;25631;51.516;-0.470;2024-01-30T11:52:53;41;37;
39955;PMS5003;25631;51.516;-0.470;2024-01-30T11:55:30;54;46;
39955;PMS5003;25631;51.516;-0.470;2024-01-30T11:58:07;51;46;
39955;PMS5003;25631;51.516;-0.470;2024-01-30T12:00:52;42;39;
39955;PMS5003;25631;51.516;-0.470;2024-01-30T12:03:29;41;39;
39955;PMS5003;25631;51.516;-0.470;2024-01-30T12:06:05;41;38;
39955;PMS5003;25631;51.516;-0.470;2024-01-30T12:08:42;43;40;
39955;PMS5003;25631;51.516;-0.470;2024-01-30T12:11:18;46;40;
39955;PMS5003;25631;51.516;-0.470;2024-01-30T12:13:55;33;32;
39955;PMS5003;25631;51.516;-0.470;2024-01-30T12:16:32;31;31;
39955;PMS5003;25631;51.516;-0.470;2024-01-30T12:19:08;33;33;
39955;PMS5003;25631;51.516;-0.470;2024-01-30T12:21:45;29;27;
39955;PMS5003;25631;51.516;-0.470;2024-01-30T12:24:22;30;29;
39955;PMS5003;25631;51.516;-0.470;2024-01-30T12:26:59;34;32;
39955;PMS5003;25631;51.516;-0.470;2024-01-30T12:29:35;27;26;
39955;PMS5003;25631;51.516;-0.470;2024-01-30T12:32:15;29;29;
39955;PMS5003;25631;51.516;-0.470;2024-01-30T12:34:54;27;25;
39955;PMS5003;25631;51.516;-0.470;2024-01-30T12:37:31;24;23;
39955;PMS5003;25631;51.516;-0.470;2024-01-30T12:40:07;23;21;
39955;PMS5003;25631;51.516;-0.470;2024-01-30T12:42:46;18;16;
39955;PMS5003;25631;51.516;-0.470;2024-01-30T12:45:23;18;16;
39955;PMS5003;25631;51.516;-0.470;2024-01-30T12:48:00;16;16;
39955;PMS5003;25631;51.516;-0.470;2024-01-30T12:50:37;17;16;
39955;PMS5003;25631;51.516;-0.470;2024-01-30T12:53:13;18;16;
39955;PMS5003;25631;51.516;-0.470;2024-01-30T12:55:50;16;13;
39955;PMS5003;25631;51.516;-0.470;2024-01-30T12:58:26;16;13;
39955;PMS5003;25631;51.516;-0.470;2024-01-30T13:01:03;16;14;
39955;PMS5003;25631;51.516;-0.470;2024-01-30T13:03:39;14;14;
39955;PMS5003;25631;51.516;-0.470;2024-01-30T13:06:16;16;15;
39955;PMS5003;25631;51.516;-0.470;2024-01-30T13:08:52;15;14;
39955;PMS5003;25631;51.516;-0.470;2024-01-30T13:11:29;14;13;
39955;PMS5003;25631;51.516;-0.470;2024-01-30T13:14:05;15;13;
39955;PMS5003;25631;51.516;-0.470;2024-01-30T13:16:42;13;13;
39955;PMS5003;25631;51.516;-0.470;2024-01-30T13:19:18;13;13;
39955;PMS5003;25631;51.516;-0.470;2024-01-30T13:21:55;15;15;
39955;PMS5003;25631;51.516;-0.470;2024-01-30T13:24:31;14;14;
39955;PMS5003;25631;51.516;-0.470;2024-01-30T13:27:07;14;14;
39955;PMS5003;25631;51.516;-0.470;2024-01-30T13:29:44;19;15;
39955;PMS5003;25631;51.516;-0.470;2024-01-30T13:32:20;17;15;
39955;PMS5003;25631;51.516;-0.470;2024-01-30T13:34:56;16;14;
39955;PMS5003;25631;51.516;-0.470;2024-01-30T13:37:33;17;17;
39955;PMS5003;25631;51.516;-0.470;2024-01-30T13:40:09;17;17;
39955;PMS5003;25631;51.516;-0.470;2024-01-30T13:42:46;16;15;
39955;PMS5003;25631;51.516;-0.470;2024-01-30T13:45:23;14;13;
39955;PMS5003;25631;51.516;-0.470;2024-01-30T13:47:59;14;13;
39955;PMS5003;25631;51.516;-0.470;2024-01-30T13:50:36;16;14;
39955;PMS5003;25631;51.516;-0.470;2024-01-30T13:53:12;14;14;
39955;PMS5003;25631;51.516;-0.470;2024-01-30T13:55:49;15;15;
39955;PMS5003;25631;51.516;-0.470;2024-01-30T13:58:25;14;14;
39955;PMS5003;25631;51.516;-0.470;2024-01-30T14:01:02;17;15;
39955;PMS5003;25631;51.516;-0.470;2024-01-30T14:03:38;15;14;
39955;PMS5003;25631;51.516;-0.470;2024-01-30T14:06:14;14;13;
39955;PMS5003;25631;51.516;-0.470;2024-01-30T14:08:51;14;12;
39955;PMS5003;25631;51.516;-0.470;2024-01-30T14:11:27;17;14;
39955;PMS5003;25631;51.516;-0.470;2024-01-30T14:14:04;19;15;
39955;PMS5003;25631;51.516;-0.470;2024-01-30T14:16:40;15;15;
39955;PMS5003;25631;51.516;-0.470;2024-01-30T14:19:17;17;17;
39955;PMS5003;25631;51.516;-0.470;2024-01-30T14:21:53;17;17;
39955;PMS5003;25631;51.516;-0.470;2024-01-30T14:24:30;15;15;
39955;PMS5003;25631;51.516;-0.470;2024-01-30T14:27:06;13;13;
39955;PMS5003;25631;51.516;-0.470;2024-01-30T14:29:43;15;14;
39955;PMS5003;25631;51.516;-0.470;2024-01-30T14:32:19;15;14;
39955;PMS5003;25631;51.516;-0.470;2024-01-30T14:34:56;15;14;
39955;PMS5003;25631;51.516;-0.470;2024-01-30T14:37:32;12;12;
39955;PMS5003;25631;51.516;-0.470;2024-01-30T14:40:09;12;12;
39955;PMS5003;25631;51.516;-0.470;2024-01-30T14:42:45;11;11;
39955;PMS5003;25631;51.516;-0.470;2024-01-30T14:45:22;15;14;
39955;PMS5003;25631;51.516;-0.470;2024-01-30T14:47:59;15;14;
39955;PMS5003;25631;51.516;-0.470;2024-01-30T14:50:36;18;15;
39955;PMS5003;25631;51.516;-0.470;2024-01-30T14:53:12;18;15;
39955;PMS5003;25631;51.516;-0.470;2024-01-30T14:55:48;17;13;
39955;PMS5003;25631;51.516;-0.470;2024-01-30T14:58:25;15;15;
39955;PMS5003;25631;51.516;-0.470;2024-01-30T15:01:01;16;15;
39955;PMS5003;25631;51.516;-0.470;2024-01-30T15:03:38;16;14;
39955;PMS5003;25631;51.516;-0.470;2024-01-30T15:06:14;16;14;
39955;PMS5003;25631;51.516;-0.470;2024-01-30T15:08:51;17;16;
39955;PMS5003;25631;51.516;-0.470;2024-01-30T15:11:28;25;22;
39955;PMS5003;25631;51.516;-0.470;2024-01-30T15:14:04;25;23;
39955;PMS5003;25631;51.516;-0.470;2024-01-30T15:16:41;27;24;
39955;PMS5003;25631;51.516;-0.470;2024-01-30T15:19:18;12;12;
39955;PMS5003;25631;51.516;-0.470;2024-01-30T15:21:54;12;12;
39955;PMS5003;25631;51.516;-0.470;2024-01-30T15:24:31;14;14;
39955;PMS5003;25631;51.516;-0.470;2024-01-30T15:27:07;14;13;
39955;PMS5003;25631;51.516;-0.470;2024-01-30T15:29:43;18;14;
39955;PMS5003;25631;51.516;-0.470;2024-01-30T15:32:20;14;11;
39955;PMS5003;25631;51.516;-0.470;2024-01-30T15:34:56;14;12;
39955;PMS5003;25631;51.516;-0.470;2024-01-30T15:37:33;12;11;
39955;PMS5003;25631;51.516;-0.470;2024-01-30T15:40:10;12;11;
39955;PMS5003;25631;51.516;-0.470;2024-01-30T15:42:47;12;12;
39955;PMS5003;25631;51.516;-0.470;2024-01-30T15:45:23;10;10;
39955;PMS5003;25631;51.516;-0.470;2024-01-30T15:48:00;10;10;
39955;PMS5003;25631;51.516;-0.470;2024-01-30T15:50:36;12;12;
39955;PMS5003;25631;51.516;-0.470;2024-01-30T15:53:12;11;9;
39955;PMS5003;25631;51.516;-0.470;2024-01-30T15:55:49;10;9;
39955;PMS5003;25631;51.516;-0.470;2024-01-30T15:58:25;12;11;
39955;PMS5003;25631;51.516;-0.470;2024-01-30T16:01:02;11;10;
39955;PMS5003;25631;51.516;-0.470;2024-01-30T16:03:39;11;10;
39955;PMS5003;25631;51.516;-0.470;2024-01-30T16:06:15;11;11;
39955;PMS5003;25631;51.516;-0.470;2024-01-30T16:08:52;12;12;
39955;PMS5003;25631;51.516;-0.470;2024-01-30T16:11:28;7;7;
39955;PMS5003;25631;51.516;-0.470;2024-01-30T16:14:04;6;6;
39955;PMS5003;25631;51.516;-0.470;2024-01-30T16:16:41;6;6;
39955;PMS5003;25631;51.516;-0.470;2024-01-30T16:19:17;10;9;
39955;PMS5003;25631;51.516;-0.470;2024-01-30T16:21:54;10;9;
39955;PMS5003;25631;51.516;-0.470;2024-01-30T16:24:30;12;11;
39955;PMS5003;25631;51.516;-0.470;2024-01-30T16:27:07;11;11;
39955;PMS5003;25631;51.516;-0.470;2024-01-30T16:29:43;13;12;
39955;PMS5003;25631;51.516;-0.470;2024-01-30T16:32:19;16;13;
39955;PMS5003;25631;51.516;-0.470;2024-01-30T16:34:56;14;13;
39955;PMS5003;25631;51.516;-0.470;2024-01-30T16:37:32;13;12;
39955;PMS5003;25631;51.516;-0.470;2024-01-30T16:40:09;17;15;
39955;PMS5003;25631;51.516;-0.470;2024-01-30T16:42:46;16;16;
39955;PMS5003;25631;51.516;-0.470;2024-01-30T16:45:22;15;14;
39955;PMS5003;25631;51.516;-0.470;2024-01-30T16:47:59;16;15;
39955;PMS5003;25631;51.516;-0.470;2024-01-30T16:50:35;15;14;
39955;PMS5003;25631;51.516;-0.470;2024-01-30T16:53:12;9;8;
39955;PMS5003;25631;51.516;-0.470;2024-01-30T16:55:48;10;9;
39955;PMS5003;25631;51.516;-0.470;2024-01-30T16:58:24;10;9;
39955;PMS5003;25631;51.516;-0.470;2024-01-30T17:01:01;9;9;
39955;PMS5003;25631;51.516;-0.470;2024-01-30T17:03:39;10;9;
39955;PMS5003;25631;51.516;-0.470;2024-01-30T17:06:15;12;11;
39955;PMS5003;25631;51.516;-0.470;2024-01-30T17:08:51;13;11;